createdAt,value
2022-09-27T00:01:19.251Z,17.55
2022-09-27T00:03:47.851Z,16.17
2022-09-27T00:06:25.399Z,15.10
2022-09-27T00:08:54.016Z,18.60
2022-09-27T00:11:29.793Z,16.13
2022-09-27T00:14:00.773Z,16.77
2022-09-27T00:16:32.805Z,16.88
2022-09-27T00:19:04.677Z,15.95
2022-09-27T00:21:35.373Z,18.83
2022-09-27T00:24:04.341Z,18.23
2022-09-27T00:26:33.207Z,16.98
2022-09-27T00:29:01.956Z,17.17
2022-09-27T00:31:32.633Z,16.15
2022-09-27T00:34:03.897Z,17.88
2022-09-27T00:36:35.509Z,21.92
2022-09-27T00:39:04.502Z,21.10
2022-09-27T00:41:36.991Z,22.17
2022-09-27T00:44:59.937Z,22.35
2022-09-27T00:47:37.109Z,25.05
2022-09-27T00:50:15.559Z,23.30
2022-09-27T00:52:55.302Z,23.33
2022-09-27T00:55:31.464Z,21.90
2022-09-27T00:58:00.882Z,22.23
2022-09-27T01:00:29.671Z,22.00
2022-09-27T01:02:59.307Z,22.02
2022-09-27T01:05:30.365Z,21.75
2022-09-27T01:08:01.208Z,18.27
2022-09-27T01:10:40.253Z,21.25
2022-09-27T01:13:20.305Z,21.30
2022-09-27T01:15:59.668Z,23.00
2022-09-27T01:18:39.988Z,20.13
2022-09-27T01:21:43.567Z,21.75
2022-09-27T01:24:56.507Z,20.90
2022-09-27T01:28:11.526Z,21.92
2022-09-27T01:30:51.344Z,22.08
2022-09-27T01:33:37.936Z,21.77
2022-09-27T01:36:23.600Z,22.58
2022-09-27T01:39:19.881Z,22.23
2022-09-27T01:42:25.172Z,25.95
2022-09-27T01:45:07.828Z,22.85
2022-09-27T01:47:53.133Z,21.25
2022-09-27T01:50:47.484Z,22.15
2022-09-27T01:53:23.086Z,21.02
2022-09-27T01:56:16.206Z,23.80
2022-09-27T01:59:11.203Z,25.73
2022-09-27T02:01:51.755Z,25.85
2022-09-27T02:04:29.696Z,26.05
2022-09-27T02:07:17.939Z,23.50
2022-09-27T02:09:54.237Z,25.17
2022-09-27T02:12:36.652Z,25.05
2022-09-27T02:15:15.402Z,26.13
2022-09-27T02:17:59.373Z,26.75
2022-09-27T02:20:36.145Z,23.08
2022-09-27T02:23:20.186Z,23.98
2022-09-27T02:25:58.542Z,23.40
2022-09-27T02:28:34.184Z,23.65
2022-09-27T02:31:03.520Z,23.40
2022-09-27T02:33:43.501Z,25.02
2022-09-27T02:36:15.266Z,25.83
2022-09-27T02:38:45.523Z,26.00
2022-09-27T02:41:18.267Z,26.33
2022-09-27T02:43:53.345Z,24.42
2022-09-27T02:46:58.593Z,25.25
2022-09-27T02:50:04.449Z,23.13
2022-09-27T02:53:08.041Z,24.45
2022-09-27T02:55:54.188Z,22.98
2022-09-27T02:58:59.882Z,25.83
2022-09-27T03:01:57.934Z,23.98
2022-09-27T03:04:42.049Z,24.58
2022-09-27T03:07:11.249Z,24.77
2022-09-27T03:09:48.205Z,24.75
2022-09-27T03:12:22.710Z,26.27
2022-09-27T03:14:51.500Z,26.00
2022-09-27T03:17:55.276Z,27.42
2022-09-27T03:20:42.635Z,26.05
2022-09-27T03:23:17.032Z,26.33
2022-09-27T03:25:47.477Z,27.92
2022-09-27T03:28:16.721Z,30.00
2022-09-27T03:30:47.573Z,29.67
2022-09-27T03:33:36.311Z,32.97
2022-09-27T03:36:09.764Z,29.05
2022-09-27T03:38:39.240Z,27.80
2022-09-27T03:41:12.072Z,28.58
2022-09-27T03:43:41.472Z,31.63
2022-09-27T03:46:10.173Z,30.45
2022-09-27T03:48:39.048Z,29.33
2022-09-27T03:51:08.482Z,29.20
2022-09-27T03:53:37.199Z,29.52
2022-09-27T03:56:06.539Z,28.42
2022-09-27T03:58:37.709Z,27.35
2022-09-27T04:01:07.251Z,27.75
2022-09-27T04:03:38.251Z,29.35
2022-09-27T04:06:28.328Z,27.45
2022-09-27T04:08:57.209Z,27.58
2022-09-27T04:11:34.189Z,27.23
2022-09-27T04:14:05.664Z,27.98
2022-09-27T04:16:41.636Z,26.38
2022-09-27T04:19:31.191Z,26.80
2022-09-27T04:22:08.946Z,24.98
2022-09-27T04:24:37.973Z,24.25
2022-09-27T04:27:22.069Z,23.42
2022-09-27T04:29:54.296Z,24.48
2022-09-27T04:32:43.942Z,24.40
2022-09-27T04:35:53.381Z,26.95
2022-09-27T04:38:24.113Z,27.67
2022-09-27T04:40:53.357Z,25.95
2022-09-27T04:43:22.686Z,26.38
2022-09-27T04:45:52.699Z,26.27
2022-09-27T04:48:21.776Z,25.25
2022-09-27T04:50:58.499Z,25.25
2022-09-27T04:53:27.589Z,26.20
2022-09-27T04:55:56.930Z,26.52
2022-09-27T04:58:26.637Z,25.30
2022-09-27T05:00:57.068Z,23.10
2022-09-27T05:03:43.876Z,27.92
2022-09-27T05:06:14.831Z,27.92
2022-09-27T05:08:45.690Z,26.95
2022-09-27T05:11:17.273Z,27.05
2022-09-27T05:14:06.183Z,27.23
2022-09-27T05:16:45.310Z,27.13
2022-09-27T05:19:43.179Z,29.60
2022-09-27T05:22:17.698Z,28.73
2022-09-27T05:24:47.197Z,29.50
2022-09-27T05:27:20.541Z,29.33
2022-09-27T05:29:50.276Z,32.50
2022-09-27T05:32:27.193Z,34.50
2022-09-27T05:35:23.037Z,34.60
2022-09-27T05:37:57.367Z,38.35
2022-09-27T05:40:44.712Z,39.03
2022-09-27T05:43:13.888Z,34.75
2022-09-27T05:45:44.221Z,36.78
2022-09-27T05:48:15.636Z,37.80
2022-09-27T05:50:49.123Z,36.83
2022-09-27T05:53:18.778Z,38.10
2022-09-27T05:55:48.722Z,33.00
2022-09-27T05:58:19.375Z,38.75
2022-09-27T06:00:54.280Z,36.97
2022-09-27T06:03:47.792Z,38.60
2022-09-27T06:06:16.710Z,37.05
2022-09-27T06:08:51.037Z,40.97
2022-09-27T06:11:21.302Z,40.05
2022-09-27T06:13:51.947Z,39.72
2022-09-27T06:16:21.264Z,42.88
2022-09-27T06:18:52.141Z,43.72
2022-09-27T06:21:21.378Z,39.17
2022-09-27T06:23:56.575Z,43.17
2022-09-27T06:26:31.866Z,42.30
2022-09-27T06:29:15.682Z,39.65
2022-09-27T06:31:52.690Z,39.17
2022-09-27T06:34:32.756Z,37.58
2022-09-27T06:37:01.522Z,39.17
2022-09-27T06:39:33.282Z,41.67
2022-09-27T06:42:30.543Z,40.60
2022-09-27T06:45:12.606Z,37.78
2022-09-27T06:48:02.585Z,39.33
2022-09-27T06:50:49.186Z,36.13
2022-09-27T06:53:18.884Z,38.08
2022-09-27T06:55:47.598Z,33.03
2022-09-27T06:58:34.062Z,34.08
2022-09-27T07:01:29.829Z,34.30
2022-09-27T07:04:27.220Z,31.27
2022-09-27T07:07:07.003Z,31.92
2022-09-27T07:10:03.349Z,27.27
2022-09-27T07:12:37.630Z,24.83
2022-09-27T07:15:07.681Z,22.83
2022-09-27T07:17:37.471Z,25.90
2022-09-27T07:20:07.766Z,26.92
2022-09-27T07:22:43.171Z,27.35
2022-09-27T07:25:13.615Z,27.33
2022-09-27T07:27:42.369Z,25.60
2022-09-27T07:30:13.867Z,26.63
2022-09-27T07:32:43.517Z,26.58
2022-09-27T07:35:15.633Z,27.23
2022-09-27T07:37:47.265Z,29.25
2022-09-27T07:40:16.063Z,24.88
2022-09-27T07:42:44.671Z,26.10
2022-09-27T07:45:14.042Z,26.48
2022-09-27T07:48:05.542Z,27.20
2022-09-27T07:50:54.146Z,27.38
2022-09-27T07:53:43.405Z,27.33
2022-09-27T07:56:41.101Z,26.30
2022-09-27T07:59:12.960Z,26.10
2022-09-27T08:01:41.905Z,26.17
2022-09-27T08:04:10.882Z,31.55
2022-09-27T08:06:40.057Z,27.38
2022-09-27T08:09:10.441Z,28.67
2022-09-27T08:11:41.098Z,30.67
2022-09-27T08:14:11.685Z,27.55
2022-09-27T08:16:42.756Z,28.55
2022-09-27T08:19:20.098Z,29.48
2022-09-27T08:22:24.833Z,26.75
2022-09-27T08:25:01.752Z,27.33
2022-09-27T08:27:44.875Z,26.13
2022-09-27T08:30:21.669Z,23.45
2022-09-27T08:32:50.257Z,24.02
2022-09-27T08:35:18.941Z,25.10
2022-09-27T08:37:55.734Z,23.55
2022-09-27T08:40:39.154Z,23.55
2022-09-27T08:43:21.266Z,25.52
2022-09-27T08:46:08.773Z,24.33
2022-09-27T08:48:41.135Z,23.10
2022-09-27T08:51:15.622Z,26.02
2022-09-27T08:53:52.271Z,25.95
2022-09-27T08:56:24.241Z,27.20
2022-09-27T08:58:59.887Z,25.00
2022-09-27T09:01:35.320Z,23.23
2022-09-27T09:04:29.837Z,21.23
2022-09-27T09:07:16.247Z,20.70
2022-09-27T09:09:59.834Z,24.60
2022-09-27T09:12:50.106Z,23.50
2022-09-27T09:15:54.050Z,24.83
2022-09-27T09:18:45.068Z,21.70
2022-09-27T09:21:35.551Z,21.55
2022-09-27T09:24:25.617Z,24.80
2022-09-27T09:27:05.558Z,22.95
2022-09-27T09:30:30.281Z,22.40
2022-09-27T09:33:24.183Z,22.17
2022-09-27T09:36:02.640Z,24.42
2022-09-27T09:38:42.893Z,25.20
2022-09-27T09:41:24.735Z,24.55
2022-09-27T09:44:00.426Z,24.25
2022-09-27T09:46:40.185Z,24.80
2022-09-27T09:49:22.247Z,26.73
2022-09-27T09:51:58.205Z,28.10
2022-09-27T09:54:34.533Z,25.55
2022-09-27T09:57:13.994Z,24.70
2022-09-27T09:59:50.693Z,27.63
2022-09-27T10:02:31.246Z,27.65
2022-09-27T10:05:08.385Z,25.80
2022-09-27T10:07:40.868Z,28.13
2022-09-27T10:10:15.444Z,33.20
2022-09-27T10:13:19.810Z,28.15
2022-09-27T10:16:04.312Z,28.95
2022-09-27T10:18:39.817Z,28.10
2022-09-27T10:21:16.722Z,29.70
2022-09-27T10:24:12.421Z,31.98
2022-09-27T10:27:02.340Z,30.77
2022-09-27T10:29:38.266Z,29.92
2022-09-27T10:32:30.875Z,31.10
2022-09-27T10:35:37.960Z,28.63
2022-09-27T10:38:27.756Z,34.45
2022-09-27T10:41:25.087Z,31.23
2022-09-27T10:44:24.952Z,33.05
2022-09-27T10:47:13.987Z,32.17
2022-09-27T10:50:07.835Z,29.23
2022-09-27T10:53:14.153Z,30.13
2022-09-27T10:55:48.745Z,27.63
2022-09-27T10:58:27.060Z,26.77
2022-09-27T11:01:01.334Z,25.95
2022-09-27T11:03:34.268Z,25.98
2022-09-27T11:06:29.106Z,28.13
2022-09-27T11:09:18.938Z,24.92
2022-09-27T11:11:50.858Z,27.63
2022-09-27T11:14:23.304Z,28.77
2022-09-27T11:17:20.817Z,28.88
2022-09-27T11:20:16.633Z,26.92
2022-09-27T11:23:18.804Z,27.38
2022-09-27T11:26:10.465Z,33.65
2022-09-27T11:28:57.542Z,31.98
2022-09-27T11:32:13.541Z,28.60
2022-09-27T11:35:11.765Z,24.45
2022-09-27T11:37:51.212Z,23.50
2022-09-27T11:40:36.516Z,22.08
2022-09-27T11:43:30.831Z,20.85
2022-09-27T11:46:23.892Z,20.27
2022-09-27T11:49:27.450Z,21.42
2022-09-27T11:52:34.412Z,20.60
2022-09-27T11:55:21.281Z,20.58
2022-09-27T11:58:02.022Z,19.40
2022-09-27T12:00:53.236Z,17.65
2022-09-27T12:04:22.248Z,17.02
2022-09-27T12:07:02.538Z,16.67
2022-09-27T12:09:40.539Z,17.60
2022-09-27T12:12:19.321Z,17.17
2022-09-27T12:14:56.880Z,17.50
2022-09-27T12:17:32.293Z,19.20
2022-09-27T12:20:11.601Z,15.90
2022-09-27T12:22:59.506Z,16.67
2022-09-27T12:26:14.478Z,18.38
2022-09-27T12:28:52.133Z,16.75
2022-09-27T12:31:30.040Z,16.85
2022-09-27T12:34:19.948Z,16.45
2022-09-27T12:37:00.217Z,15.43
2022-09-27T12:39:44.178Z,14.68
2022-09-27T12:42:30.601Z,15.77
2022-09-27T12:45:03.011Z,13.10
2022-09-27T12:48:01.788Z,13.40
2022-09-27T12:50:41.210Z,13.45
2022-09-27T12:53:23.372Z,17.00
2022-09-27T12:56:10.848Z,15.63
2022-09-27T12:59:01.477Z,15.80
2022-09-27T13:02:01.079Z,17.38
2022-09-27T13:04:53.590Z,14.57
2022-09-27T13:07:47.553Z,15.02
2022-09-27T13:10:49.362Z,13.75
2022-09-27T13:13:39.952Z,14.00
2022-09-27T13:16:12.368Z,14.27
2022-09-27T13:19:01.631Z,13.30
2022-09-27T13:21:59.491Z,12.73
2022-09-27T13:24:56.235Z,14.80
2022-09-27T13:27:43.958Z,15.10
2022-09-27T13:30:47.541Z,12.20
2022-09-27T13:33:44.304Z,12.90
2022-09-27T13:36:32.621Z,12.45
2022-09-27T13:39:22.775Z,15.02
2022-09-27T13:42:39.423Z,11.52
2022-09-27T13:45:24.556Z,11.32
2022-09-27T13:47:57.054Z,11.40
2022-09-27T13:50:47.096Z,11.35
2022-09-27T13:53:29.351Z,12.93
2022-09-27T13:55:59.258Z,11.93
2022-09-27T13:58:53.483Z,12.63
2022-09-27T14:01:48.293Z,13.20
2022-09-27T14:04:24.143Z,12.45
2022-09-27T14:06:58.377Z,11.93
2022-09-27T14:09:33.036Z,12.95
2022-09-27T14:12:14.250Z,12.48
2022-09-27T14:14:45.645Z,12.20
2022-09-27T14:17:14.729Z,11.63
2022-09-27T14:19:48.647Z,10.75
2022-09-27T14:22:21.610Z,9.80
2022-09-27T14:25:20.527Z,10.05
2022-09-27T14:27:53.422Z,10.32
2022-09-27T14:30:46.727Z,10.25
2022-09-27T14:33:35.966Z,10.35
2022-09-27T14:36:45.218Z,9.52
2022-09-27T14:39:17.498Z,9.25
2022-09-27T14:41:48.131Z,10.85
2022-09-27T14:44:21.751Z,10.32
2022-09-27T14:47:12.009Z,9.93
2022-09-27T14:49:48.717Z,11.70
2022-09-27T14:52:24.311Z,10.10
2022-09-27T14:55:02.402Z,10.38
2022-09-27T14:57:35.340Z,11.65
2022-09-27T15:00:19.076Z,11.15
2022-09-27T15:02:54.339Z,10.60
2022-09-27T15:05:26.291Z,10.73
2022-09-27T15:07:58.266Z,11.57
2022-09-27T15:10:33.456Z,10.55
2022-09-27T15:13:05.171Z,11.20
2022-09-27T15:15:36.674Z,11.35
2022-09-27T15:18:43.158Z,11.63
2022-09-27T15:21:15.717Z,11.68
2022-09-27T15:23:46.863Z,12.48
2022-09-27T15:26:21.670Z,12.00
2022-09-27T15:28:53.165Z,14.07
2022-09-27T15:31:31.233Z,11.15
2022-09-27T15:34:02.272Z,11.10
2022-09-27T15:36:55.753Z,10.75
2022-09-27T15:39:32.405Z,11.55
2022-09-27T15:42:10.549Z,12.05
2022-09-27T15:44:47.992Z,12.40
2022-09-27T15:47:49.757Z,12.75
2022-09-27T15:50:41.223Z,12.85
2022-09-27T15:53:11.347Z,12.77
2022-09-27T15:55:45.263Z,12.40
2022-09-27T15:58:19.458Z,15.27
2022-09-27T16:00:57.690Z,14.32
2022-09-27T16:03:28.114Z,13.35
2022-09-27T16:06:01.228Z,13.60
2022-09-27T16:08:30.580Z,13.18
2022-09-27T16:11:03.341Z,13.52
2022-09-27T16:13:33.271Z,16.08
2022-09-27T16:16:04.232Z,14.88
2022-09-27T16:18:33.860Z,14.82
2022-09-27T16:21:04.252Z,16.10
2022-09-27T16:23:32.880Z,18.73
2022-09-27T16:26:01.424Z,20.80
2022-09-27T16:28:30.239Z,16.13
2022-09-27T16:31:05.023Z,15.75
2022-09-27T16:33:35.802Z,19.15
2022-09-27T16:36:14.533Z,20.75
2022-09-27T16:38:44.101Z,20.08
2022-09-27T16:41:12.894Z,18.23
2022-09-27T16:43:41.555Z,17.40
2022-09-27T16:46:11.777Z,14.70
2022-09-27T16:48:40.857Z,15.85
2022-09-27T16:51:35.002Z,19.13
2022-09-27T16:54:05.677Z,19.42
2022-09-27T16:56:35.697Z,18.73
2022-09-27T16:59:07.291Z,18.80
2022-09-27T17:01:36.613Z,18.02
2022-09-27T17:04:05.497Z,17.35
2022-09-27T17:06:36.855Z,17.08
2022-09-27T17:09:06.216Z,15.95
2022-09-27T17:11:35.156Z,17.90
2022-09-27T17:14:04.156Z,18.92
2022-09-27T17:16:33.145Z,17.75
2022-09-27T17:19:02.510Z,19.08
2022-09-27T17:21:35.636Z,18.95
2022-09-27T17:24:08.860Z,20.55
2022-09-27T17:26:37.830Z,17.83
2022-09-27T17:29:08.330Z,18.80
2022-09-27T17:31:40.617Z,17.50
2022-09-27T17:34:12.934Z,17.13
2022-09-27T17:36:48.192Z,17.20
2022-09-27T17:39:22.379Z,17.55
2022-09-27T17:41:51.740Z,19.92
2022-09-27T17:44:21.016Z,18.15
2022-09-27T17:47:10.494Z,15.60
2022-09-27T17:49:56.851Z,17.63
2022-09-27T17:52:25.867Z,18.00
2022-09-27T17:54:57.608Z,17.95
2022-09-27T17:57:26.722Z,18.60
2022-09-27T17:59:55.718Z,21.55
2022-09-27T18:02:24.478Z,22.85
2022-09-27T18:04:53.246Z,23.63
2022-09-27T18:07:22.311Z,21.00
2022-09-27T18:09:51.335Z,21.80
2022-09-27T18:12:21.901Z,22.13
2022-09-27T18:14:50.986Z,21.02
2022-09-27T18:17:19.723Z,25.35
2022-09-27T18:19:48.411Z,23.00
2022-09-27T18:22:17.397Z,19.75
2022-09-27T18:24:46.148Z,21.67
2022-09-27T18:27:18.245Z,22.67
2022-09-27T18:29:48.782Z,21.50
2022-09-27T18:32:17.642Z,23.40
2022-09-27T18:34:46.324Z,22.00
2022-09-27T18:37:15.255Z,24.77
2022-09-27T18:39:43.923Z,19.48
2022-09-27T18:42:12.715Z,19.75
2022-09-27T18:44:41.757Z,20.17
2022-09-27T18:47:11.806Z,17.75
2022-09-27T18:49:40.489Z,20.42
2022-09-27T18:52:09.419Z,17.98
2022-09-27T18:54:38.565Z,18.40
2022-09-27T18:57:07.271Z,19.42
2022-09-27T18:59:36.233Z,20.92
2022-09-27T19:02:05.097Z,18.65
2022-09-27T19:04:36.273Z,18.17
2022-09-27T19:07:05.141Z,18.77
2022-09-27T19:09:33.981Z,18.98
2022-09-27T19:12:03.305Z,18.98
2022-09-27T19:14:32.187Z,20.25
2022-09-27T19:17:00.870Z,18.60
2022-09-27T19:19:29.754Z,19.55
2022-09-27T19:21:59.951Z,20.25
2022-09-27T19:24:28.940Z,20.85
2022-09-27T19:26:57.536Z,17.58
2022-09-27T19:29:26.823Z,19.20
2022-09-27T19:31:55.469Z,18.58
2022-09-27T19:34:24.012Z,19.52
2022-09-27T19:36:52.777Z,17.67
2022-09-27T19:39:22.734Z,18.70
2022-09-27T19:41:51.321Z,15.95
2022-09-27T19:44:20.060Z,18.52
2022-09-27T19:46:48.646Z,16.67
2022-09-27T19:49:18.847Z,17.10
2022-09-27T19:51:47.593Z,17.58
2022-09-27T19:54:16.490Z,19.58
2022-09-27T19:56:46.862Z,16.45
2022-09-27T19:59:15.962Z,15.90
2022-09-27T20:01:44.714Z,15.30
2022-09-27T20:04:14.590Z,16.27
2022-09-27T20:06:43.172Z,17.48
2022-09-27T20:09:12.119Z,15.95
2022-09-27T20:11:40.694Z,18.40
2022-09-27T20:14:10.729Z,16.75
2022-09-27T20:16:41.551Z,17.17
2022-09-27T20:19:11.610Z,14.05
2022-09-27T20:21:40.911Z,15.88
2022-09-27T20:24:09.495Z,18.08
2022-09-27T20:26:38.209Z,16.27
2022-09-27T20:29:08.113Z,15.95
2022-09-27T20:31:56.984Z,14.13
2022-09-27T20:34:31.207Z,16.27
2022-09-27T20:36:59.746Z,15.38
2022-09-27T20:39:28.284Z,17.20
2022-09-27T20:41:57.046Z,16.67
2022-09-27T20:44:26.230Z,17.20
2022-09-27T20:46:56.150Z,16.33
2022-09-27T20:49:25.104Z,17.40
2022-09-27T20:51:53.621Z,19.40
2022-09-27T20:54:22.360Z,17.95
2022-09-27T20:56:51.365Z,19.48
2022-09-27T20:59:22.857Z,18.27
2022-09-27T21:01:53.451Z,18.85
2022-09-27T21:04:23.722Z,19.05
2022-09-27T21:06:53.134Z,20.10
2022-09-27T21:09:21.651Z,21.00
2022-09-27T21:11:51.884Z,21.80
2022-09-27T21:14:21.112Z,22.73
2022-09-27T21:16:49.831Z,23.02
2022-09-27T21:19:19.283Z,19.65
2022-09-27T21:21:51.912Z,24.02
2022-09-27T21:24:20.471Z,22.23
2022-09-27T21:26:49.927Z,24.13
2022-09-27T21:29:18.817Z,24.60
2022-09-27T21:31:47.427Z,24.38
2022-09-27T21:34:16.180Z,20.42
2022-09-27T21:36:44.765Z,24.63
2022-09-27T21:39:15.473Z,27.15
2022-09-27T21:41:44.237Z,21.42
2022-09-27T21:44:13.133Z,23.23
2022-09-27T21:46:43.896Z,22.50
2022-09-27T21:49:13.013Z,21.88
2022-09-27T21:51:44.523Z,21.63
2022-09-27T21:54:16.529Z,22.73
2022-09-27T21:56:45.798Z,25.27
2022-09-27T21:59:18.197Z,22.33
2022-09-27T22:01:47.891Z,25.55
2022-09-27T22:04:17.052Z,21.90
2022-09-27T22:06:45.672Z,23.23
2022-09-27T22:09:19.766Z,22.95
2022-09-27T22:11:48.279Z,21.88
2022-09-27T22:14:19.817Z,23.02
2022-09-27T22:16:48.868Z,23.77
2022-09-27T22:19:18.131Z,23.67
2022-09-27T22:21:47.305Z,24.88
2022-09-27T22:24:19.269Z,23.40
2022-09-27T22:26:52.858Z,22.25
2022-09-27T22:29:22.062Z,23.35
2022-09-27T22:31:50.879Z,25.92
2022-09-27T22:34:29.017Z,23.38
2022-09-27T22:37:00.881Z,25.58
2022-09-27T22:39:30.808Z,24.98
2022-09-27T22:41:59.552Z,23.45
2022-09-27T22:44:28.001Z,20.83
2022-09-27T22:46:56.794Z,23.40
2022-09-27T22:49:25.660Z,26.50
2022-09-27T22:51:54.191Z,22.42
2022-09-27T22:54:22.897Z,17.85
2022-09-27T22:56:57.409Z,20.80
2022-09-27T22:59:26.724Z,21.98
2022-09-27T23:01:56.149Z,23.50
2022-09-27T23:04:24.798Z,22.17
2022-09-27T23:06:53.473Z,24.13
2022-09-27T23:09:22.209Z,21.55
2022-09-27T23:11:52.073Z,22.52
2022-09-27T23:14:21.980Z,22.55
2022-09-27T23:16:50.732Z,26.10
2022-09-27T23:19:21.930Z,22.45
2022-09-27T23:21:50.650Z,23.23
2022-09-27T23:24:20.113Z,23.52
2022-09-27T23:27:09.009Z,25.40
2022-09-27T23:29:39.308Z,24.52
2022-09-27T23:32:07.820Z,28.52
2022-09-27T23:34:36.363Z,24.77
2022-09-27T23:37:05.990Z,23.65
2022-09-27T23:39:34.561Z,27.27
2022-09-27T23:42:03.306Z,27.27
2022-09-27T23:44:32.025Z,25.80
2022-09-27T23:47:02.478Z,23.55
2022-09-27T23:49:32.237Z,25.15
2022-09-27T23:52:01.689Z,22.85
2022-09-27T23:54:30.696Z,20.10
2022-09-27T23:56:59.654Z,20.42
2022-09-27T23:59:28.653Z,19.65
